Time;durP1;ratioP1;P1;durP2;ratioP2;P2;SDS_P1;SDS_P2;PMS_P1;PMS_P2;Temp;Humidity;BMP_temperature;BMP_pressure;BME280_temperature;BME280_humidity;BME280_pressure;Samples;Min_cycle;Max_cycle;Signal;HPM_P1;HPM_P2
2021/12/10 00:00:14;;;;;;;;;;;2.60;99.90;3.10;98374.00;;;;342291;28;91540;-94
2021/12/10 00:01:01;;;;;;;;;;;2.60;99.90;3.10;98377.00;;;;339407;28;91035;-93
2021/12/10 00:01:17;;;;;;;;;;;2.60;99.90;3.10;98370.00;;;;338728;28;94509;-94
2021/12/10 00:01:33;;;;;;;;;;;2.60;99.90;3.20;98370.00;;;;336650;28;91129;-93
2021/12/10 00:01:56;;;;;;;;;;;2.60;99.90;3.20;98367.00;;;;336953;28;91667;-94
2021/12/10 00:02:11;;;;;;;;;;;2.60;99.90;3.10;98365.00;;;;338476;28;91970;-93
2021/12/10 00:02:23;;;;;;;;;;;2.60;99.90;3.10;98355.00;;;;338813;28;92853;-94
2021/12/10 00:02:35;;;;;;;;;;;2.60;99.90;3.20;98356.00;;;;339955;28;91031;-94
2021/12/10 00:02:47;;;;;;;;;;;2.60;99.90;3.30;98357.00;;;;338756;28;94798;-94
2021/12/10 00:03:01;;;;;;;;;;;2.60;99.90;3.20;98353.00;;;;338027;28;90498;-94
2021/12/10 00:03:25;;;;;;;;;;;2.60;99.90;3.10;98353.00;;;;340105;28;93403;-94
2021/12/10 00:03:43;;;;;;;;;;;2.60;99.90;3.20;98358.00;;;;340868;28;91073;-95
2021/12/10 00:03:56;;;;;;;;;;;2.60;99.90;3.20;98349.00;;;;338692;28;93815;-95
2021/12/10 00:04:09;;;;;;;;;;;2.50;99.90;3.10;98350.00;;;;340210;28;92103;-94
2021/12/10 00:04:23;;;;;;;;;;;2.50;99.90;3.10;98345.00;;;;340880;28;92450;-95
2021/12/10 00:04:36;;;;;;;;;;;2.60;99.90;3.20;98352.00;;;;338012;28;91050;-94
2021/12/10 00:04:48;;;;;;;;;;;2.60;99.90;3.20;98351.00;;;;339314;28;93863;-94
2021/12/10 00:05:02;;;;;;;;;;;2.60;99.90;3.20;98341.00;;;;339120;28;91192;-93
2021/12/10 00:05:20;;;;;;;;;;;2.60;99.90;3.30;98351.00;;;;339246;28;94847;-94
2021/12/10 00:05:38;;;;;;;;;;;2.60;99.90;3.20;98342.00;;;;337633;28;91232;-94
2021/12/10 00:06:00;;;;;;;;;;;2.60;99.90;3.20;98344.00;;;;338510;28;93097;-94
2021/12/10 00:06:23;;;;;;;;;;;2.60;99.90;3.30;98337.00;;;;340205;28;91252;-94
2021/12/10 00:06:38;;;;;;;;;;;2.60;99.90;3.30;98338.00;;;;340833;28;93443;-95
2021/12/10 00:06:53;;;;;;;;;;;2.60;99.90;3.30;98340.00;;;;338678;28;91278;-94
2021/12/10 00:07:08;;;;;;;;;;;2.60;99.90;3.20;98330.00;;;;339298;28;94123;-95
2021/12/10 00:07:21;;;;;;;;;;;2.60;99.90;3.20;98336.00;;;;337853;28;93046;-94
2021/12/10 00:07:33;;;;;;;;;;;2.60;99.90;3.30;98335.00;;;;337818;28;95982;-93
2021/12/10 00:07:47;;;;;;;;;;;2.60;99.90;3.30;98327.00;;;;339755;28;91995;-96
2021/12/10 00:07:59;;;;;;;;;;;2.60;99.90;3.20;98326.00;;;;338984;28;94668;-94
2021/12/10 00:08:10;;;;;;;;;;;2.60;99.90;3.20;98328.00;;;;338815;28;90429;-94
2021/12/10 00:08:23;;;;;;;;;;;2.60;99.90;3.10;98332.00;;;;341833;28;93912;-94
2021/12/10 00:08:36;;;;;;;;;;;2.60;99.90;3.10;98330.00;;;;338656;28;91262;-95
2021/12/10 00:08:51;;;;;;;;;;;2.60;99.90;3.10;98325.00;;;;337869;28;96210;-94
2021/12/10 00:09:29;;;;;;;;;;;2.50;99.90;3.10;98333.00;;;;336259;28;91199;-94
2021/12/10 00:09:47;;;;;;;;;;;2.60;99.90;3.20;98327.00;;;;338846;28;95179;-94
2021/12/10 00:10:03;;;;;;;;;;;2.60;99.90;3.20;98326.00;;;;342813;28;92117;-94
2021/12/10 00:10:19;;;;;;;;;;;2.60;99.90;3.00;98334.00;;;;340566;28;95183;-93
2021/12/10 00:10:34;;;;;;;;;;;2.60;99.90;3.00;98334.00;;;;337434;28;91151;-94
2021/12/10 00:10:49;;;;;;;;;;;2.50;99.90;3.10;98323.00;;;;338318;28;95900;-95
2021/12/10 00:11:07;;;;;;;;;;;2.50;99.90;3.20;98328.00;;;;338698;28;90488;-94
2021/12/10 00:11:46;;;;;;;;;;;2.60;99.90;3.20;98327.00;;;;339152;28;94085;-95
2021/12/10 00:12:20;;;;;;;;;;;2.50;99.90;3.10;98327.00;;;;338616;28;91318;-95
2021/12/10 00:12:35;;;;;;;;;;;2.60;99.90;3.00;98320.00;;;;339281;28;96225;-93
2021/12/10 00:12:51;;;;;;;;;;;2.50;99.90;3.20;98318.00;;;;343015;28;91301;-95
2021/12/10 00:13:03;;;;;;;;;;;2.50;99.90;3.20;98319.00;;;;340731;28;95686;-94
2021/12/10 00:13:15;;;;;;;;;;;2.50;99.90;3.20;98323.00;;;;339283;28;92039;-94
2021/12/10 00:13:27;;;;;;;;;;;2.60;99.90;3.20;98327.00;;;;341086;28;95857;-94
2021/12/10 00:13:43;;;;;;;;;;;2.60;99.90;3.30;98326.00;;;;340710;28;91240;-94
2021/12/10 00:13:56;;;;;;;;;;;2.60;99.90;3.30;98323.00;;;;342502;28;96355;-94
2021/12/10 00:14:08;;;;;;;;;;;2.60;99.90;3.30;98315.00;;;;338139;28;91361;-95
2021/12/10 00:14:24;;;;;;;;;;;2.60;99.90;3.30;98328.00;;;;339625;28;93032;-94
2021/12/10 00:14:36;;;;;;;;;;;2.60;99.90;3.20;98317.00;;;;339583;28;91981;-94
2021/12/10 00:14:48;;;;;;;;;;;2.60;99.90;3.20;98307.00;;;;338219;28;95459;-95
2021/12/10 00:14:59;;;;;;;;;;;2.60;99.90;3.30;98316.00;;;;339449;28;92001;-94
2021/12/10 00:15:11;;;;;;;;;;;2.60;99.90;3.30;98317.00;;;;341000;28;94957;-94
2021/12/10 00:15:25;;;;;;;;;;;2.60;99.90;3.20;98313.00;;;;343164;28;91151;-94
2021/12/10 00:15:39;;;;;;;;;;;2.60;99.90;3.30;98316.00;;;;339399;28;95634;-94
2021/12/10 00:15:54;;;;;;;;;;;2.60;99.90;3.20;98312.00;;;;341488;28;91986;-95
2021/12/10 00:16:06;;;;;;;;;;;2.60;99.90;3.20;98314.00;;;;343287;28;93771;-95
2021/12/10 00:16:18;;;;;;;;;;;2.60;99.90;3.20;98310.00;;;;334495;29;91227;-94
2021/12/10 00:16:32;;;;;;;;;;;2.60;99.90;3.10;98308.00;;;;340309;28;93148;-93
2021/12/10 00:16:44;;;;;;;;;;;2.60;99.90;3.10;98307.00;;;;340735;28;91313;-94
2021/12/10 00:16:57;;;;;;;;;;;2.60;99.90;3.10;98312.00;;;;340396;28;94630;-94
2021/12/10 00:17:10;;;;;;;;;;;2.60;99.90;3.20;98305.00;;;;338738;28;92086;-95
2021/12/10 00:17:22;;;;;;;;;;;2.60;99.90;3.20;98304.00;;;;339525;28;95191;-95
2021/12/10 00:17:34;;;;;;;;;;;2.60;99.90;3.20;98305.00;;;;341469;28;92020;-94
2021/12/10 00:17:46;;;;;;;;;;;2.60;99.90;3.20;98294.00;;;;341833;28;94458;-94
2021/12/10 00:17:59;;;;;;;;;;;2.60;99.90;3.20;98302.00;;;;338971;28;92002;-94
2021/12/10 00:18:13;;;;;;;;;;;2.50;99.90;3.20;98312.00;;;;341541;28;93731;-94
2021/12/10 00:18:31;;;;;;;;;;;2.60;99.90;3.20;98308.00;;;;341503;28;90489;-94
2021/12/10 00:18:50;;;;;;;;;;;2.60;99.90;3.10;98297.00;;;;340392;28;94206;-95
2021/12/10 00:19:47;;;;;;;;;;;2.60;99.90;3.20;98296.00;;;;337698;28;92275;-94
2021/12/10 00:20:01;;;;;;;;;;;2.60;99.90;3.30;98303.00;;;;333535;29;92058;-94
2021/12/10 00:20:13;;;;;;;;;;;2.60;99.90;3.20;98297.00;;;;339833;28;95003;-93
2021/12/10 00:20:26;;;;;;;;;;;2.60;99.90;3.10;98292.00;;;;341575;28;92124;-94
2021/12/10 00:20:39;;;;;;;;;;;2.60;99.90;3.20;98296.00;;;;342781;28;95292;-94
2021/12/10 00:20:57;;;;;;;;;;;2.60;99.90;3.20;98287.00;;;;340072;28;91982;-94
2021/12/10 00:21:09;;;;;;;;;;;2.60;99.90;3.20;98297.00;;;;340429;28;95906;-94
2021/12/10 00:21:23;;;;;;;;;;;2.60;99.90;3.20;98289.00;;;;340225;28;91496;-95
2021/12/10 00:21:34;;;;;;;;;;;2.60;99.90;3.30;98284.00;;;;340426;28;94917;-94
2021/12/10 00:21:47;;;;;;;;;;;2.60;99.90;3.20;98289.00;;;;337150;28;91364;-93
2021/12/10 00:22:00;;;;;;;;;;;2.60;99.90;3.10;98290.00;;;;341635;28;95168;-94
2021/12/10 00:22:33;;;;;;;;;;;2.60;99.90;3.20;98295.00;;;;341441;28;91346;-94
2021/12/10 00:22:52;;;;;;;;;;;2.60;99.90;3.20;98293.00;;;;339003;28;96181;-95
2021/12/10 00:23:10;;;;;;;;;;;2.50;99.90;3.20;98300.00;;;;339916;28;92170;-94
2021/12/10 00:23:22;;;;;;;;;;;2.50;99.90;3.20;98296.00;;;;340465;28;96042;-93
2021/12/10 00:23:35;;;;;;;;;;;2.50;99.90;3.10;98292.00;;;;338801;28;91257;-94
2021/12/10 00:23:50;;;;;;;;;;;2.60;99.90;3.20;98292.00;;;;340436;28;95821;-93
2021/12/10 00:24:02;;;;;;;;;;;2.60;99.90;3.10;98291.00;;;;340242;28;90548;-94
2021/12/10 00:24:16;;;;;;;;;;;2.50;99.90;3.20;98292.00;;;;339016;28;93774;-95
2021/12/10 00:24:30;;;;;;;;;;;2.60;99.90;3.10;98286.00;;;;342997;28;92082;-94
2021/12/10 00:24:43;;;;;;;;;;;2.50;99.90;3.10;98289.00;;;;340764;28;95090;-95
2021/12/10 00:24:55;;;;;;;;;;;2.60;99.90;3.10;98282.00;;;;339114;28;92062;-95
2021/12/10 00:25:13;;;;;;;;;;;2.60;99.90;3.10;98289.00;;;;337797;28;96133;-96
2021/12/10 00:25:35;;;;;;;;;;;2.50;99.90;3.10;98291.00;;;;338766;28;91210;-94
2021/12/10 00:25:49;;;;;;;;;;;2.50;99.90;3.20;98289.00;;;;340106;28;95025;-94
2021/12/10 00:26:03;;;;;;;;;;;2.50;99.90;3.20;98275.00;;;;342744;28;91900;-94
2021/12/10 00:26:15;;;;;;;;;;;2.50;99.90;3.20;98280.00;;;;343099;28;95248;-95
2021/12/10 00:26:27;;;;;;;;;;;2.60;99.90;3.30;98280.00;;;;341589;28;90360;-95
2021/12/10 00:26:39;;;;;;;;;;;2.60;99.90;3.20;98282.00;;;;343269;28;94041;-94
2021/12/10 00:26:51;;;;;;;;;;;2.60;99.90;3.10;98287.00;;;;341266;28;92152;-94
2021/12/10 00:27:05;;;;;;;;;;;2.60;99.90;3.20;98285.00;;;;341537;28;95743;-94
2021/12/10 00:27:27;;;;;;;;;;;2.60;99.90;3.10;98275.00;;;;341599;28;91919;-95
2021/12/10 00:27:39;;;;;;;;;;;2.50;99.90;3.10;98281.00;;;;341524;28;95934;-94
2021/12/10 00:27:52;;;;;;;;;;;2.50;99.90;3.10;98275.00;;;;339934;28;92189;-95
2021/12/10 00:28:14;;;;;;;;;;;2.50;99.90;3.10;98280.00;;;;339026;28;95321;-94
2021/12/10 00:28:28;;;;;;;;;;;2.50;99.90;3.20;98272.00;;;;337438;28;92065;-94
2021/12/10 00:28:40;;;;;;;;;;;2.50;99.90;3.10;98278.00;;;;341682;28;95235;-95
2021/12/10 00:29:01;;;;;;;;;;;2.50;99.90;3.10;98272.00;;;;342866;28;90441;-95
2021/12/10 00:29:13;;;;;;;;;;;2.50;99.90;3.20;98268.00;;;;340215;28;94086;-94
2021/12/10 00:29:25;;;;;;;;;;;2.50;99.90;3.10;98269.00;;;;338918;28;91100;-95
2021/12/10 00:29:41;;;;;;;;;;;2.50;99.90;3.10;98272.00;;;;338977;28;95412;-94
2021/12/10 00:29:54;;;;;;;;;;;2.50;99.90;3.20;98271.00;;;;341507;28;91106;-95
2021/12/10 00:30:18;;;;;;;;;;;2.50;99.90;3.10;98263.00;;;;339119;28;96208;-95
2021/12/10 00:30:33;;;;;;;;;;;2.60;99.90;3.30;98282.00;;;;337411;28;92200;-94
2021/12/10 00:31:19;;;;;;;;;;;2.60;99.90;3.10;98270.00;;;;340620;28;94581;-94
2021/12/10 00:31:56;;;;;;;;;;;2.50;99.90;3.10;98256.00;;;;341555;28;94990;-95
2021/12/10 00:32:18;;;;;;;;;;;2.60;99.90;3.20;98258.00;;;;340286;28;90460;-95
2021/12/10 00:32:34;;;;;;;;;;;2.50;99.90;3.20;98254.00;;;;338985;28;93678;-94
2021/12/10 00:32:49;;;;;;;;;;;2.50;99.90;3.30;98260.00;;;;338867;28;91994;-94
2021/12/10 00:33:13;;;;;;;;;;;2.60;99.90;3.20;98247.00;;;;336488;28;94936;-94
2021/12/10 00:33:25;;;;;;;;;;;2.50;99.90;3.20;98254.00;;;;336237;28;91989;-95
2021/12/10 00:33:40;;;;;;;;;;;2.50;99.90;3.30;98257.00;;;;338892;28;94120;-94
2021/12/10 00:34:01;;;;;;;;;;;2.60;99.90;3.20;98255.00;;;;342710;28;91186;-94
2021/12/10 00:34:21;;;;;;;;;;;2.60;99.90;3.00;98254.00;;;;340417;28;94726;-96
2021/12/10 00:34:39;;;;;;;;;;;2.60;99.90;3.10;98247.00;;;;338807;28;91181;-94
2021/12/10 00:34:52;;;;;;;;;;;2.50;99.90;3.10;98249.00;;;;340248;28;94707;-95
2021/12/10 00:35:08;;;;;;;;;;;2.50;99.90;3.10;98247.00;;;;338852;28;91249;-95
2021/12/10 00:35:22;;;;;;;;;;;2.50;99.90;3.10;98249.00;;;;339191;28;93968;-94
2021/12/10 00:35:34;;;;;;;;;;;2.50;99.90;3.10;98241.00;;;;338706;28;92126;-94
2021/12/10 00:35:46;;;;;;;;;;;2.50;99.90;3.10;98238.00;;;;340294;28;95527;-94
2021/12/10 00:35:58;;;;;;;;;;;2.50;99.90;3.00;98241.00;;;;340324;28;91150;-95
2021/12/10 00:36:10;;;;;;;;;;;2.50;99.90;3.10;98232.00;;;;340469;28;94828;-94
2021/12/10 00:36:22;;;;;;;;;;;2.50;99.90;3.10;98232.00;;;;338849;28;91962;-94
2021/12/10 00:36:36;;;;;;;;;;;2.50;99.90;3.10;98238.00;;;;340256;28;94930;-94
2021/12/10 00:36:49;;;;;;;;;;;2.50;99.90;3.20;98231.00;;;;341499;28;92060;-94
2021/12/10 00:37:04;;;;;;;;;;;2.50;99.90;3.20;98232.00;;;;337701;28;94303;-94
2021/12/10 00:37:17;;;;;;;;;;;2.50;99.90;3.20;98228.00;;;;338758;28;91400;-94
2021/12/10 00:37:29;;;;;;;;;;;2.50;99.90;3.10;98228.00;;;;340422;28;95514;-95
2021/12/10 00:37:40;;;;;;;;;;;2.50;99.90;3.10;98227.00;;;;339899;28;92068;-94
2021/12/10 00:37:52;;;;;;;;;;;2.50;99.90;3.00;98226.00;;;;340024;28;95654;-94
2021/12/10 00:38:04;;;;;;;;;;;2.50;99.90;3.10;98227.00;;;;338926;28;91957;-95
2021/12/10 00:38:16;;;;;;;;;;;2.50;99.90;3.00;98227.00;;;;341555;28;93283;-95
2021/12/10 00:38:28;;;;;;;;;;;2.50;99.90;3.00;98230.00;;;;341415;28;91116;-95
2021/12/10 00:38:39;;;;;;;;;;;2.50;99.90;3.00;98226.00;;;;340425;28;96346;-93
2021/12/10 00:38:52;;;;;;;;;;;2.50;99.90;3.10;98219.00;;;;340319;28;91188;-93
2021/12/10 00:39:09;;;;;;;;;;;2.50;99.90;3.10;98219.00;;;;335024;29;95891;-95
2021/12/10 00:39:30;;;;;;;;;;;2.50;99.90;3.20;98221.00;;;;338857;28;91357;-95
2021/12/10 00:39:48;;;;;;;;;;;2.50;99.90;3.20;98226.00;;;;341771;28;95458;-94
2021/12/10 00:40:00;;;;;;;;;;;2.50;99.90;3.10;98215.00;;;;339975;28;91241;-95
2021/12/10 00:40:13;;;;;;;;;;;2.50;99.90;3.20;98226.00;;;;340447;28;96377;-94
2021/12/10 00:40:25;;;;;;;;;;;2.50;99.90;3.20;98222.00;;;;340179;28;91975;-94
2021/12/10 00:40:38;;;;;;;;;;;2.50;99.90;3.30;98231.00;;;;337726;28;95120;-95
2021/12/10 00:40:49;;;;;;;;;;;2.50;99.90;3.20;98214.00;;;;338857;28;91203;-94
2021/12/10 00:41:02;;;;;;;;;;;2.50;99.90;3.10;98210.00;;;;339178;28;94755;-94
2021/12/10 00:41:14;;;;;;;;;;;2.50;99.90;3.10;98197.00;;;;338922;28;90969;-94
2021/12/10 00:41:26;;;;;;;;;;;2.50;99.90;3.20;98212.00;;;;337787;28;95877;-94
2021/12/10 00:41:38;;;;;;;;;;;2.50;99.90;3.20;98222.00;;;;338786;28;90498;-94
2021/12/10 00:41:50;;;;;;;;;;;2.50;99.90;3.20;98211.00;;;;340219;28;95015;-94
2021/12/10 00:42:05;;;;;;;;;;;2.50;99.90;3.20;98214.00;;;;340260;28;91224;-95
2021/12/10 00:42:18;;;;;;;;;;;2.50;99.90;3.20;98200.00;;;;338915;28;95521;-95
2021/12/10 00:42:35;;;;;;;;;;;2.50;99.90;3.30;98207.00;;;;340126;28;92088;-96
2021/12/10 00:42:47;;;;;;;;;;;2.60;99.90;3.20;98212.00;;;;339304;28;96287;-94
2021/12/10 00:42:59;;;;;;;;;;;2.50;99.90;3.20;98203.00;;;;336037;28;92175;-94
2021/12/10 00:43:11;;;;;;;;;;;2.50;99.90;3.20;98203.00;;;;340353;28;95897;-94
2021/12/10 00:43:23;;;;;;;;;;;2.50;99.90;3.20;98199.00;;;;338885;28;92029;-94
2021/12/10 00:43:35;;;;;;;;;;;2.50;99.90;3.20;98196.00;;;;336518;28;95146;-95
2021/12/10 00:43:46;;;;;;;;;;;2.50;99.90;3.10;98203.00;;;;341529;28;90489;-96
2021/12/10 00:43:58;;;;;;;;;;;2.50;99.90;3.10;98202.00;;;;340497;28;95402;-92
2021/12/10 00:44:10;;;;;;;;;;;2.50;99.90;3.10;98194.00;;;;340233;28;91041;-95
2021/12/10 00:44:22;;;;;;;;;;;2.50;99.90;3.10;98203.00;;;;341792;28;94948;-94
2021/12/10 00:44:34;;;;;;;;;;;2.50;99.90;3.20;98202.00;;;;340059;28;91238;-95
2021/12/10 00:44:47;;;;;;;;;;;2.50;99.90;3.10;98196.00;;;;339327;28;94663;-94
2021/12/10 00:45:00;;;;;;;;;;;2.50;99.90;3.10;98195.00;;;;340181;28;91029;-95
2021/12/10 00:45:13;;;;;;;;;;;2.50;99.90;3.20;98200.00;;;;340487;28;96073;-94
2021/12/10 00:45:26;;;;;;;;;;;2.50;99.90;3.20;98193.00;;;;340276;28;91118;-95
2021/12/10 00:45:38;;;;;;;;;;;2.50;99.90;3.10;98199.00;;;;339824;28;96112;-94
2021/12/10 00:45:50;;;;;;;;;;;2.50;99.90;3.10;98201.00;;;;334459;28;91416;-94
2021/12/10 00:46:02;;;;;;;;;;;2.50;99.90;3.20;98191.00;;;;337744;28;94430;-94
2021/12/10 00:46:14;;;;;;;;;;;2.50;99.90;3.30;98198.00;;;;341075;28;91254;-94
2021/12/10 00:46:26;;;;;;;;;;;2.50;99.90;3.10;98191.00;;;;340450;28;95893;-95
2021/12/10 00:46:38;;;;;;;;;;;2.50;99.90;3.20;98189.00;;;;338878;28;92004;-95
2021/12/10 00:46:50;;;;;;;;;;;2.50;99.90;3.10;98189.00;;;;341503;28;94962;-94
2021/12/10 00:47:03;;;;;;;;;;;2.50;99.90;3.30;98202.00;;;;338839;28;92040;-94
2021/12/10 00:47:14;;;;;;;;;;;2.50;99.90;3.30;98201.00;;;;339139;28;95788;-96
2021/12/10 00:47:27;;;;;;;;;;;2.60;99.90;3.30;98191.00;;;;340203;28;92003;-94
2021/12/10 00:47:39;;;;;;;;;;;2.60;99.90;3.30;98190.00;;;;338976;28;94650;-94
2021/12/10 00:47:51;;;;;;;;;;;2.60;99.90;3.20;98185.00;;;;338830;28;91324;-94
2021/12/10 00:48:03;;;;;;;;;;;2.60;99.90;3.20;98185.00;;;;340317;28;93310;-94
2021/12/10 00:48:15;;;;;;;;;;;2.60;99.90;3.30;98194.00;;;;340107;28;92025;-94
2021/12/10 00:48:27;;;;;;;;;;;2.60;99.90;3.30;98187.00;;;;337847;28;94991;-94
2021/12/10 00:48:38;;;;;;;;;;;2.60;99.90;3.30;98185.00;;;;339938;28;91191;-95
2021/12/10 00:48:51;;;;;;;;;;;2.60;99.90;3.30;98182.00;;;;341305;28;94536;-95
2021/12/10 00:49:03;;;;;;;;;;;2.60;99.90;3.30;98188.00;;;;333492;29;91203;-93
2021/12/10 00:49:15;;;;;;;;;;;2.60;99.90;3.20;98180.00;;;;338870;28;95714;-95
2021/12/10 00:49:27;;;;;;;;;;;2.60;99.90;3.20;98176.00;;;;339138;28;91912;-94
2021/12/10 00:49:39;;;;;;;;;;;2.60;99.90;3.30;98183.00;;;;338130;28;95937;-94
2021/12/10 00:49:51;;;;;;;;;;;2.60;99.90;3.30;98185.00;;;;337951;28;91164;-95
2021/12/10 00:50:05;;;;;;;;;;;2.60;99.90;3.30;98178.00;;;;342365;28;93701;-94
2021/12/10 00:50:20;;;;;;;;;;;2.60;99.90;3.30;98176.00;;;;338969;28;91374;-95
2021/12/10 00:50:51;;;;;;;;;;;2.60;99.90;3.30;98186.00;;;;339642;28;95324;-95
2021/12/10 00:51:04;;;;;;;;;;;2.60;99.90;3.30;98171.00;;;;342033;28;91197;-94
2021/12/10 00:51:16;;;;;;;;;;;2.70;99.90;3.40;98178.00;;;;336775;28;94974;-94
2021/12/10 00:51:28;;;;;;;;;;;2.60;99.90;3.30;98177.00;;;;337780;28;91188;-94
2021/12/10 00:51:40;;;;;;;;;;;2.60;99.90;3.30;98172.00;;;;339262;28;96135;-95
2021/12/10 00:51:52;;;;;;;;;;;2.60;99.90;3.30;98163.00;;;;341612;28;91789;-95
2021/12/10 00:52:04;;;;;;;;;;;2.60;99.90;3.30;98161.00;;;;338148;28;94731;-95
2021/12/10 00:52:16;;;;;;;;;;;2.60;99.90;3.40;98171.00;;;;338659;28;90736;-94
2021/12/10 00:52:28;;;;;;;;;;;2.70;99.90;3.30;98156.00;;;;343762;28;93306;-94
2021/12/10 00:52:42;;;;;;;;;;;2.70;99.90;3.20;98167.00;;;;340751;28;91200;-95
2021/12/10 00:52:54;;;;;;;;;;;2.70;99.90;3.30;98162.00;;;;336942;28;94754;-93
2021/12/10 00:53:06;;;;;;;;;;;2.60;99.90;3.30;98159.00;;;;337990;28;91243;-93
2021/12/10 00:53:18;;;;;;;;;;;2.60;99.90;3.30;98166.00;;;;340709;28;94968;-93
2021/12/10 00:53:30;;;;;;;;;;;2.70;99.90;3.20;98159.00;;;;337735;28;91228;-94
2021/12/10 00:53:42;;;;;;;;;;;2.70;99.90;3.20;98156.00;;;;339327;28;93594;-93
2021/12/10 00:53:53;;;;;;;;;;;2.60;99.90;3.10;98156.00;;;;339298;28;92153;-93
2021/12/10 00:54:06;;;;;;;;;;;2.70;99.90;3.20;98154.00;;;;338247;28;94026;-95
2021/12/10 00:54:18;;;;;;;;;;;2.60;99.90;3.30;98156.00;;;;337785;28;90502;-93
2021/12/10 00:54:30;;;;;;;;;;;2.70;99.90;3.20;98159.00;;;;339529;28;93248;-94
2021/12/10 00:54:42;;;;;;;;;;;2.70;99.90;3.30;98158.00;;;;339579;28;91298;-93
2021/12/10 00:54:54;;;;;;;;;;;2.60;99.90;3.20;98141.00;;;;338122;28;95389;-94
2021/12/10 00:55:06;;;;;;;;;;;2.70;99.90;3.30;98130.00;;;;339247;28;91174;-94
2021/12/10 00:55:18;;;;;;;;;;;2.60;99.90;3.30;98145.00;;;;338252;28;94486;-93
2021/12/10 00:55:30;;;;;;;;;;;2.60;99.90;3.30;98149.00;;;;339248;28;91906;-94
2021/12/10 00:55:42;;;;;;;;;;;2.70;99.90;3.30;98150.00;;;;340595;28;94009;-94
2021/12/10 00:55:54;;;;;;;;;;;2.60;99.90;3.30;98147.00;;;;338000;28;92095;-95
2021/12/10 00:56:06;;;;;;;;;;;2.60;99.90;3.30;98141.00;;;;340956;28;96642;-94
2021/12/10 00:56:18;;;;;;;;;;;2.70;99.90;3.30;98138.00;;;;341891;28;90512;-94
2021/12/10 00:56:30;;;;;;;;;;;2.70;99.90;3.30;98144.00;;;;337730;28;93916;-94
2021/12/10 00:56:42;;;;;;;;;;;2.70;99.90;3.30;98135.00;;;;338958;28;92090;-94
2021/12/10 00:56:54;;;;;;;;;;;2.70;99.90;3.30;98137.00;;;;341881;28;95009;-95
2021/12/10 00:57:06;;;;;;;;;;;2.70;99.90;3.30;98142.00;;;;338849;28;91140;-94
2021/12/10 00:57:18;;;;;;;;;;;2.60;99.90;3.20;98139.00;;;;340354;28;94952;-95
2021/12/10 00:57:30;;;;;;;;;;;2.70;99.90;3.20;98141.00;;;;340209;28;91978;-94
2021/12/10 00:57:42;;;;;;;;;;;2.70;99.90;3.20;98138.00;;;;338376;28;94860;-94
2021/12/10 00:57:54;;;;;;;;;;;2.70;99.90;3.30;98139.00;;;;341593;28;92096;-94
2021/12/10 00:58:06;;;;;;;;;;;2.70;99.90;3.30;98145.00;;;;340450;28;94912;-95
2021/12/10 00:58:18;;;;;;;;;;;2.70;99.90;3.30;98142.00;;;;341288;28;90584;-95
2021/12/10 00:58:29;;;;;;;;;;;2.70;99.90;3.30;98143.00;;;;341894;28;93958;-95
2021/12/10 00:58:41;;;;;;;;;;;2.70;99.90;3.20;98130.00;;;;338898;28;91099;-95
2021/12/10 00:58:53;;;;;;;;;;;2.60;99.90;3.20;98126.00;;;;340416;28;94770;-93
2021/12/10 00:59:05;;;;;;;;;;;2.70;99.90;3.10;98138.00;;;;342047;28;91187;-95
2021/12/10 00:59:20;;;;;;;;;;;2.60;99.90;3.10;98138.00;;;;340855;28;94984;-96
2021/12/10 00:59:32;;;;;;;;;;;2.60;99.90;3.20;98126.00;;;;339439;28;91090;-96
2021/12/10 00:59:45;;;;;;;;;;;2.60;99.90;3.30;98136.00;;;;339511;28;96192;-95
2021/12/10 00:59:57;;;;;;;;;;;2.60;99.90;3.30;98138.00;;;;339052;28;91241;-96
2021/12/10 01:00:13;;;;;;;;;;;2.60;99.90;3.20;98137.00;;;;344893;28;94453;-96
2021/12/10 01:00:29;;;;;;;;;;;2.60;99.90;3.20;98135.00;;;;340311;28;91684;-96
2021/12/10 01:01:06;;;;;;;;;;;2.60;99.90;3.20;98134.00;;;;338164;28;94703;-96
2021/12/10 01:01:23;;;;;;;;;;;2.60;99.90;3.20;98128.00;;;;335195;29;91103;-96
2021/12/10 01:01:36;;;;;;;;;;;2.60;99.90;3.20;98129.00;;;;336296;28;94521;-96
2021/12/10 01:01:49;;;;;;;;;;;2.60;99.90;3.20;98128.00;;;;340394;28;91245;-96
2021/12/10 01:02:02;;;;;;;;;;;2.60;99.90;3.20;98119.00;;;;340782;28;95135;-94
2021/12/10 01:02:17;;;;;;;;;;;2.60;99.90;3.20;98124.00;;;;334883;28;91220;-95
2021/12/10 01:02:29;;;;;;;;;;;2.60;99.90;3.20;98121.00;;;;339029;28;95003;-93
2021/12/10 01:02:41;;;;;;;;;;;2.60;99.90;3.10;98117.00;;;;340076;28;92002;-94
2021/12/10 01:02:53;;;;;;;;;;;2.60;99.90;3.20;98117.00;;;;337489;28;95094;-94
2021/12/10 01:03:06;;;;;;;;;;;2.60;99.90;3.20;98120.00;;;;337552;28;90513;-95
2021/12/10 01:03:21;;;;;;;;;;;2.60;99.90;3.10;98117.00;;;;337638;28;95461;-94
2021/12/10 01:03:37;;;;;;;;;;;2.60;99.90;3.30;98121.00;;;;336025;28;91187;-94
2021/12/10 01:03:54;;;;;;;;;;;2.60;99.90;3.30;98109.00;;;;340181;28;95698;-95
2021/12/10 01:04:13;;;;;;;;;;;2.60;99.90;3.20;98110.00;;;;334859;28;91229;-96
2021/12/10 01:04:28;;;;;;;;;;;2.60;99.90;3.20;98107.00;;;;337788;28;94881;-95
2021/12/10 01:04:42;;;;;;;;;;;2.60;99.90;3.20;98109.00;;;;338763;28;91110;-94
2021/12/10 01:04:59;;;;;;;;;;;2.60;99.90;3.20;98114.00;;;;335020;29;94767;-93
2021/12/10 01:05:11;;;;;;;;;;;2.60;99.90;3.30;98105.00;;;;336186;28;91156;-94
2021/12/10 01:05:23;;;;;;;;;;;2.60;99.90;3.30;98107.00;;;;339074;28;94343;-95
2021/12/10 01:05:35;;;;;;;;;;;2.60;99.90;3.30;98105.00;;;;337539;28;91433;-95
2021/12/10 01:05:50;;;;;;;;;;;2.60;99.90;3.20;98112.00;;;;338961;28;93803;-95
2021/12/10 01:06:04;;;;;;;;;;;2.60;99.90;3.20;98108.00;;;;338625;28;91195;-95
2021/12/10 01:06:17;;;;;;;;;;;2.60;99.90;3.20;98114.00;;;;336391;28;95480;-95
2021/12/10 01:06:29;;;;;;;;;;;2.60;99.90;3.20;98115.00;;;;340066;28;91926;-94
2021/12/10 01:06:42;;;;;;;;;;;2.60;99.90;3.20;98114.00;;;;337808;28;96217;-93
2021/12/10 01:06:55;;;;;;;;;;;2.60;99.90;3.30;98114.00;;;;337658;28;91198;-94
2021/12/10 01:07:09;;;;;;;;;;;2.60;99.90;3.30;98114.00;;;;337662;28;94529;-94
2021/12/10 01:07:24;;;;;;;;;;;2.60;99.90;3.20;98110.00;;;;338665;28;91266;-93
2021/12/10 01:07:37;;;;;;;;;;;2.60;99.90;3.30;98108.00;;;;340384;28;97266;-93
2021/12/10 01:07:49;;;;;;;;;;;2.60;99.90;3.30;98110.00;;;;338777;28;90485;-94
2021/12/10 01:08:01;;;;;;;;;;;2.60;99.90;3.20;98109.00;;;;336421;28;94030;-95
2021/12/10 01:08:14;;;;;;;;;;;2.60;99.90;3.20;98113.00;;;;337479;28;91311;-95
2021/12/10 01:08:25;;;;;;;;;;;2.60;99.90;3.30;98099.00;;;;336467;28;96218;-93
2021/12/10 01:08:39;;;;;;;;;;;2.60;99.90;3.20;98107.00;;;;337560;28;91120;-95
2021/12/10 01:08:54;;;;;;;;;;;2.60;99.90;3.30;98111.00;;;;338860;28;94862;-95
2021/12/10 01:09:09;;;;;;;;;;;2.60;99.90;3.30;98107.00;;;;338852;28;92056;-95
2021/12/10 01:09:24;;;;;;;;;;;2.60;99.90;3.20;98104.00;;;;337590;28;93555;-95
2021/12/10 01:09:38;;;;;;;;;;;2.60;99.90;3.30;98118.00;;;;337039;28;92200;-95
2021/12/10 01:09:51;;;;;;;;;;;2.60;99.90;3.40;98112.00;;;;337463;28;93207;-95
2021/12/10 01:10:12;;;;;;;;;;;2.60;99.90;3.40;98105.00;;;;340022;28;90456;-95
2021/12/10 01:10:30;;;;;;;;;;;2.60;99.90;3.40;98115.00;;;;337757;28;94302;-94
2021/12/10 01:10:47;;;;;;;;;;;2.70;99.90;3.40;98117.00;;;;337224;28;91264;-93
2021/12/10 01:11:15;;;;;;;;;;;2.70;99.90;3.30;98107.00;;;;337601;28;94443;-94
2021/12/10 01:11:49;;;;;;;;;;;2.70;99.90;3.30;98103.00;;;;336219;28;91227;-93
2021/12/10 01:12:25;;;;;;;;;;;2.60;99.90;3.20;98096.00;;;;338864;28;96105;-95
2021/12/10 01:12:44;;;;;;;;;;;2.60;99.90;3.20;98089.00;;;;340125;28;91110;-94
2021/12/10 01:12:57;;;;;;;;;;;2.70;99.90;3.30;98100.00;;;;337735;28;95968;-93
2021/12/10 01:13:13;;;;;;;;;;;2.70;99.90;3.30;98088.00;;;;338554;28;91887;-94
2021/12/10 01:13:29;;;;;;;;;;;2.70;99.90;3.40;98090.00;;;;336388;28;96392;-94
2021/12/10 01:13:44;;;;;;;;;;;2.70;99.90;3.40;98092.00;;;;337527;28;90439;-94
2021/12/10 01:14:02;;;;;;;;;;;2.70;99.90;3.40;98093.00;;;;336347;28;91981;-94
2021/12/10 01:14:24;;;;;;;;;;;2.70;99.90;3.30;98099.00;;;;340053;28;92045;-94
2021/12/10 01:14:55;;;;;;;;;;;2.70;99.90;3.30;98092.00;;;;341742;28;94425;-95
2021/12/10 01:15:43;;;;;;;;;;;2.70;99.90;3.30;98086.00;;;;338926;28;95064;-94
2021/12/10 01:23:56;;;;;;;;;;;2.70;99.90;3.40;98065.00;;;;341382;28;94139;-94
2021/12/10 01:24:31;;;;;;;;;;;2.70;99.90;3.30;98075.00;;;;341147;28;91319;-96
2021/12/10 01:24:53;;;;;;;;;;;2.70;99.90;3.40;98066.00;;;;339389;28;96072;-94